sensor_id;sensor_type;location;lat;lon;timestamp;P1;durP1;ratioP1;P2;durP2;ratioP2
77234;SDS011;66253;50.526;14.974;2024-03-23T00:52:24;61.80;;;20.30;;
77234;SDS011;66253;50.526;14.974;2024-03-23T00:54:53;37.40;;;15.50;;
77234;SDS011;66253;50.526;14.974;2024-03-23T00:57:21;23.90;;;11.50;;
77234;SDS011;66253;50.526;14.974;2024-03-23T00:59:50;19.90;;;10.20;;
77234;SDS011;66253;50.526;14.974;2024-03-23T01:02:18;21.10;;;11.10;;
77234;SDS011;66253;50.526;14.974;2024-03-23T01:04:49;21.70;;;11.10;;
77234;SDS011;66253;50.526;14.974;2024-03-23T01:07:21;22.00;;;11.20;;
77234;SDS011;66253;50.526;14.974;2024-03-23T01:09:50;25.70;;;11.90;;
77234;SDS011;66253;50.526;14.974;2024-03-23T01:12:18;28.80;;;13.60;;
77234;SDS011;66253;50.526;14.974;2024-03-23T01:14:47;27.20;;;14.20;;
77234;SDS011;66253;50.526;14.974;2024-03-23T01:17:15;26.50;;;13.50;;
77234;SDS011;66253;50.526;14.974;2024-03-23T01:19:44;25.70;;;12.90;;
77234;SDS011;66253;50.526;14.974;2024-03-23T01:22:13;20.50;;;10.20;;
77234;SDS011;66253;50.526;14.974;2024-03-23T01:24:41;21.40;;;10.50;;
77234;SDS011;66253;50.526;14.974;2024-03-23T01:27:10;19.50;;;10.40;;
77234;SDS011;66253;50.526;14.974;2024-03-23T01:29:39;21.50;;;10.70;;
77234;SDS011;66253;50.526;14.974;2024-03-23T01:32:08;17.60;;;9.60;;
77234;SDS011;66253;50.526;14.974;2024-03-23T01:34:36;18.70;;;10.80;;
77234;SDS011;66253;50.526;14.974;2024-03-23T01:37:05;18.10;;;9.20;;
77234;SDS011;66253;50.526;14.974;2024-03-23T01:39:33;18.50;;;10.40;;
77234;SDS011;66253;50.526;14.974;2024-03-23T01:42:02;18.30;;;9.50;;
77234;SDS011;66253;50.526;14.974;2024-03-23T01:44:31;16.30;;;8.30;;
77234;SDS011;66253;50.526;14.974;2024-03-23T01:47:00;16.10;;;9.10;;
77234;SDS011;66253;50.526;14.974;2024-03-23T01:49:28;17.30;;;8.60;;
77234;SDS011;66253;50.526;14.974;2024-03-23T01:51:57;18.50;;;10.40;;
77234;SDS011;66253;50.526;14.974;2024-03-23T01:54:26;17.90;;;9.40;;
77234;SDS011;66253;50.526;14.974;2024-03-23T01:59:23;16.40;;;8.20;;
77234;SDS011;66253;50.526;14.974;2024-03-23T02:01:54;16.60;;;8.70;;
77234;SDS011;66253;50.526;14.974;2024-03-23T02:04:22;18.80;;;9.40;;
77234;SDS011;66253;50.526;14.974;2024-03-23T02:06:51;17.90;;;9.50;;
77234;SDS011;66253;50.526;14.974;2024-03-23T02:09:20;18.40;;;8.80;;
77234;SDS011;66253;50.526;14.974;2024-03-23T02:11:49;17.90;;;9.40;;
77234;SDS011;66253;50.526;14.974;2024-03-23T02:14:21;17.20;;;8.40;;
77234;SDS011;66253;50.526;14.974;2024-03-23T02:16:49;17.10;;;9.30;;
77234;SDS011;66253;50.526;14.974;2024-03-23T02:19:18;20.10;;;9.80;;
77234;SDS011;66253;50.526;14.974;2024-03-23T02:21:49;39.10;;;16.80;;
77234;SDS011;66253;50.526;14.974;2024-03-23T02:24:18;49.70;;;19.80;;
77234;SDS011;66253;50.526;14.974;2024-03-23T02:26:46;52.20;;;20.60;;
77234;SDS011;66253;50.526;14.974;2024-03-23T02:29:15;25.60;;;11.40;;
77234;SDS011;66253;50.526;14.974;2024-03-23T02:31:44;25.30;;;12.10;;
77234;SDS011;66253;50.526;14.974;2024-03-23T02:34:13;20.30;;;10.90;;
77234;SDS011;66253;50.526;14.974;2024-03-23T02:36:41;18.40;;;9.10;;
77234;SDS011;66253;50.526;14.974;2024-03-23T02:39:10;19.90;;;9.80;;
77234;SDS011;66253;50.526;14.974;2024-03-23T02:41:38;18.20;;;9.40;;
77234;SDS011;66253;50.526;14.974;2024-03-23T02:44:07;16.70;;;8.80;;
77234;SDS011;66253;50.526;14.974;2024-03-23T02:46:36;19.00;;;8.30;;
77234;SDS011;66253;50.526;14.974;2024-03-23T02:49:04;13.70;;;7.40;;
77234;SDS011;66253;50.526;14.974;2024-03-23T02:51:34;18.40;;;9.70;;
77234;SDS011;66253;50.526;14.974;2024-03-23T02:56:31;14.40;;;8.10;;
77234;SDS011;66253;50.526;14.974;2024-03-23T02:59:00;15.70;;;8.00;;
77234;SDS011;66253;50.526;14.974;2024-03-23T03:01:29;15.10;;;7.60;;
77234;SDS011;66253;50.526;14.974;2024-03-23T03:03:57;15.50;;;7.80;;
77234;SDS011;66253;50.526;14.974;2024-03-23T03:06:28;16.20;;;7.80;;
77234;SDS011;66253;50.526;14.974;2024-03-23T03:08:58;16.00;;;8.20;;
77234;SDS011;66253;50.526;14.974;2024-03-23T03:11:29;15.40;;;7.60;;
77234;SDS011;66253;50.526;14.974;2024-03-23T03:14:01;17.20;;;7.70;;
77234;SDS011;66253;50.526;14.974;2024-03-23T03:16:32;16.00;;;8.40;;
77234;SDS011;66253;50.526;14.974;2024-03-23T03:19:01;16.70;;;8.50;;
77234;SDS011;66253;50.526;14.974;2024-03-23T03:21:29;14.10;;;7.80;;
77234;SDS011;66253;50.526;14.974;2024-03-23T03:23:58;14.50;;;8.80;;
77234;SDS011;66253;50.526;14.974;2024-03-23T03:26:27;19.90;;;8.20;;
77234;SDS011;66253;50.526;14.974;2024-03-23T03:28:55;17.30;;;8.20;;
77234;SDS011;66253;50.526;14.974;2024-03-23T03:31:24;18.20;;;8.70;;
77234;SDS011;66253;50.526;14.974;2024-03-23T03:33:52;16.60;;;8.20;;
77234;SDS011;66253;50.526;14.974;2024-03-23T03:36:21;15.30;;;7.50;;
77234;SDS011;66253;50.526;14.974;2024-03-23T03:38:49;15.30;;;8.40;;
77234;SDS011;66253;50.526;14.974;2024-03-23T03:41:28;15.50;;;8.30;;
77234;SDS011;66253;50.526;14.974;2024-03-23T03:44:00;15.70;;;7.40;;
77234;SDS011;66253;50.526;14.974;2024-03-23T03:46:29;17.90;;;7.40;;
77234;SDS011;66253;50.526;14.974;2024-03-23T03:49:00;15.50;;;7.80;;
77234;SDS011;66253;50.526;14.974;2024-03-23T03:51:31;14.10;;;7.30;;
77234;SDS011;66253;50.526;14.974;2024-03-23T03:54:00;15.30;;;7.30;;
77234;SDS011;66253;50.526;14.974;2024-03-23T03:56:29;16.40;;;8.00;;
77234;SDS011;66253;50.526;14.974;2024-03-23T03:58:57;14.80;;;7.50;;
77234;SDS011;66253;50.526;14.974;2024-03-23T04:01:26;15.60;;;7.50;;
77234;SDS011;66253;50.526;14.974;2024-03-23T04:03:54;16.70;;;8.70;;
77234;SDS011;66253;50.526;14.974;2024-03-23T04:06:26;15.60;;;8.00;;
77234;SDS011;66253;50.526;14.974;2024-03-23T04:08:54;19.50;;;9.70;;
77234;SDS011;66253;50.526;14.974;2024-03-23T04:11:23;15.50;;;7.50;;
77234;SDS011;66253;50.526;14.974;2024-03-23T04:13:52;15.60;;;8.20;;
77234;SDS011;66253;50.526;14.974;2024-03-23T04:16:30;20.20;;;11.00;;
77234;SDS011;66253;50.526;14.974;2024-03-23T04:19:00;17.90;;;9.10;;
77234;SDS011;66253;50.526;14.974;2024-03-23T04:21:29;18.80;;;9.20;;
77234;SDS011;66253;50.526;14.974;2024-03-23T04:23:57;16.80;;;8.00;;
77234;SDS011;66253;50.526;14.974;2024-03-23T04:26:26;15.60;;;6.90;;
77234;SDS011;66253;50.526;14.974;2024-03-23T04:28:55;16.20;;;7.40;;
77234;SDS011;66253;50.526;14.974;2024-03-23T04:31:24;16.20;;;7.60;;
77234;SDS011;66253;50.526;14.974;2024-03-23T04:33:53;14.30;;;6.80;;
77234;SDS011;66253;50.526;14.974;2024-03-23T04:36:21;13.00;;;6.90;;
77234;SDS011;66253;50.526;14.974;2024-03-23T04:38:51;14.30;;;7.60;;
77234;SDS011;66253;50.526;14.974;2024-03-23T04:41:20;14.80;;;7.90;;
77234;SDS011;66253;50.526;14.974;2024-03-23T04:43:48;13.40;;;7.20;;
77234;SDS011;66253;50.526;14.974;2024-03-23T04:46:17;15.20;;;7.60;;
77234;SDS011;66253;50.526;14.974;2024-03-23T04:48:47;14.20;;;7.60;;
77234;SDS011;66253;50.526;14.974;2024-03-23T04:51:21;16.90;;;7.80;;
77234;SDS011;66253;50.526;14.974;2024-03-23T04:53:52;15.70;;;8.80;;
77234;SDS011;66253;50.526;14.974;2024-03-23T04:56:21;15.90;;;7.90;;
77234;SDS011;66253;50.526;14.974;2024-03-23T04:58:49;18.40;;;8.50;;
77234;SDS011;66253;50.526;14.974;2024-03-23T05:01:19;16.00;;;8.60;;
77234;SDS011;66253;50.526;14.974;2024-03-23T05:03:47;16.80;;;8.30;;
77234;SDS011;66253;50.526;14.974;2024-03-23T05:06:16;16.30;;;7.60;;
77234;SDS011;66253;50.526;14.974;2024-03-23T05:08:44;17.80;;;8.70;;
77234;SDS011;66253;50.526;14.974;2024-03-23T05:11:13;17.90;;;7.70;;
77234;SDS011;66253;50.526;14.974;2024-03-23T05:13:42;16.50;;;7.90;;
77234;SDS011;66253;50.526;14.974;2024-03-23T05:16:10;15.50;;;8.10;;
77234;SDS011;66253;50.526;14.974;2024-03-23T05:18:48;14.40;;;7.30;;
77234;SDS011;66253;50.526;14.974;2024-03-23T05:21:19;16.50;;;8.60;;
77234;SDS011;66253;50.526;14.974;2024-03-23T05:23:48;19.90;;;11.30;;
77234;SDS011;66253;50.526;14.974;2024-03-23T05:26:16;19.10;;;9.80;;
77234;SDS011;66253;50.526;14.974;2024-03-23T05:28:45;21.00;;;11.00;;
77234;SDS011;66253;50.526;14.974;2024-03-23T05:31:16;23.20;;;13.10;;
77234;SDS011;66253;50.526;14.974;2024-03-23T05:33:51;21.70;;;12.50;;
77234;SDS011;66253;50.526;14.974;2024-03-23T05:36:19;22.70;;;13.80;;
77234;SDS011;66253;50.526;14.974;2024-03-23T05:38:48;22.30;;;12.90;;
77234;SDS011;66253;50.526;14.974;2024-03-23T05:41:19;17.80;;;11.70;;
77234;SDS011;66253;50.526;14.974;2024-03-23T05:43:49;18.10;;;11.80;;
77234;SDS011;66253;50.526;14.974;2024-03-23T05:46:18;21.80;;;13.10;;
77234;SDS011;66253;50.526;14.974;2024-03-23T05:48:46;27.80;;;15.10;;
77234;SDS011;66253;50.526;14.974;2024-03-23T05:51:16;22.40;;;13.80;;
77234;SDS011;66253;50.526;14.974;2024-03-23T05:53:45;20.40;;;12.60;;
77234;SDS011;66253;50.526;14.974;2024-03-23T05:56:13;19.00;;;11.10;;
77234;SDS011;66253;50.526;14.974;2024-03-23T05:58:46;20.00;;;10.40;;
77234;SDS011;66253;50.526;14.974;2024-03-23T06:01:14;16.70;;;10.00;;
77234;SDS011;66253;50.526;14.974;2024-03-23T06:03:43;17.70;;;9.00;;
77234;SDS011;66253;50.526;14.974;2024-03-23T06:06:13;16.90;;;9.00;;
77234;SDS011;66253;50.526;14.974;2024-03-23T06:08:44;19.20;;;8.60;;
77234;SDS011;66253;50.526;14.974;2024-03-23T06:11:12;19.20;;;9.50;;
77234;SDS011;66253;50.526;14.974;2024-03-23T06:13:41;17.50;;;8.80;;
77234;SDS011;66253;50.526;14.974;2024-03-23T06:16:10;16.60;;;7.70;;
77234;SDS011;66253;50.526;14.974;2024-03-23T06:18:41;16.60;;;8.30;;
77234;SDS011;66253;50.526;14.974;2024-03-23T06:21:14;19.50;;;8.60;;
77234;SDS011;66253;50.526;14.974;2024-03-23T06:23:42;15.60;;;9.40;;
77234;SDS011;66253;50.526;14.974;2024-03-23T06:26:11;19.00;;;8.90;;
77234;SDS011;66253;50.526;14.974;2024-03-23T06:28:40;15.50;;;8.50;;
77234;SDS011;66253;50.526;14.974;2024-03-23T06:31:10;21.00;;;9.40;;
77234;SDS011;66253;50.526;14.974;2024-03-23T06:33:42;19.60;;;10.30;;
77234;SDS011;66253;50.526;14.974;2024-03-23T06:36:10;19.40;;;10.10;;
77234;SDS011;66253;50.526;14.974;2024-03-23T06:38:39;15.30;;;8.00;;
77234;SDS011;66253;50.526;14.974;2024-03-23T06:41:11;15.20;;;9.20;;
77234;SDS011;66253;50.526;14.974;2024-03-23T06:43:39;17.10;;;8.90;;
77234;SDS011;66253;50.526;14.974;2024-03-23T06:46:08;15.30;;;7.10;;
77234;SDS011;66253;50.526;14.974;2024-03-23T06:48:36;15.90;;;7.60;;
77234;SDS011;66253;50.526;14.974;2024-03-23T06:51:11;13.70;;;6.80;;
77234;SDS011;66253;50.526;14.974;2024-03-23T06:53:42;16.80;;;8.20;;
77234;SDS011;66253;50.526;14.974;2024-03-23T06:56:12;16.10;;;7.70;;
77234;SDS011;66253;50.526;14.974;2024-03-23T06:58:41;14.20;;;7.50;;
77234;SDS011;66253;50.526;14.974;2024-03-23T07:01:10;15.70;;;8.20;;
77234;SDS011;66253;50.526;14.974;2024-03-23T07:03:38;14.50;;;7.70;;
77234;SDS011;66253;50.526;14.974;2024-03-23T07:06:10;18.10;;;9.50;;
77234;SDS011;66253;50.526;14.974;2024-03-23T07:08:39;17.90;;;10.30;;
77234;SDS011;66253;50.526;14.974;2024-03-23T07:11:07;19.30;;;11.00;;
77234;SDS011;66253;50.526;14.974;2024-03-23T07:13:36;17.30;;;8.80;;
77234;SDS011;66253;50.526;14.974;2024-03-23T07:16:05;25.70;;;12.30;;
77234;SDS011;66253;50.526;14.974;2024-03-23T07:18:33;19.60;;;10.10;;
77234;SDS011;66253;50.526;14.974;2024-03-23T07:21:04;18.10;;;8.90;;
77234;SDS011;66253;50.526;14.974;2024-03-23T07:23:32;17.80;;;9.20;;
77234;SDS011;66253;50.526;14.974;2024-03-23T07:26:02;16.90;;;8.80;;
77234;SDS011;66253;50.526;14.974;2024-03-23T07:28:32;18.90;;;10.10;;
77234;SDS011;66253;50.526;14.974;2024-03-23T07:31:05;17.60;;;8.90;;
77234;SDS011;66253;50.526;14.974;2024-03-23T07:33:34;17.90;;;9.10;;
77234;SDS011;66253;50.526;14.974;2024-03-23T07:36:05;19.20;;;8.90;;
77234;SDS011;66253;50.526;14.974;2024-03-23T07:38:34;15.70;;;8.10;;
77234;SDS011;66253;50.526;14.974;2024-03-23T07:41:09;17.80;;;8.70;;
77234;SDS011;66253;50.526;14.974;2024-03-23T07:43:38;17.30;;;8.40;;
77234;SDS011;66253;50.526;14.974;2024-03-23T07:46:07;16.20;;;8.50;;
77234;SDS011;66253;50.526;14.974;2024-03-23T07:48:36;16.80;;;8.60;;
77234;SDS011;66253;50.526;14.974;2024-03-23T07:51:05;20.20;;;9.70;;
77234;SDS011;66253;50.526;14.974;2024-03-23T07:53:34;15.70;;;8.60;;
77234;SDS011;66253;50.526;14.974;2024-03-23T07:56:05;16.50;;;8.00;;
77234;SDS011;66253;50.526;14.974;2024-03-23T07:58:35;15.50;;;8.20;;
77234;SDS011;66253;50.526;14.974;2024-03-23T08:01:07;14.90;;;8.30;;
77234;SDS011;66253;50.526;14.974;2024-03-23T08:03:36;16.30;;;9.10;;
77234;SDS011;66253;50.526;14.974;2024-03-23T08:06:09;14.80;;;8.80;;
77234;SDS011;66253;50.526;14.974;2024-03-23T08:08:38;13.20;;;8.00;;
77234;SDS011;66253;50.526;14.974;2024-03-23T08:11:08;13.90;;;8.40;;
77234;SDS011;66253;50.526;14.974;2024-03-23T08:13:38;12.80;;;8.20;;
77234;SDS011;66253;50.526;14.974;2024-03-23T08:16:07;12.50;;;6.70;;
77234;SDS011;66253;50.526;14.974;2024-03-23T08:18:37;12.80;;;6.80;;
77234;SDS011;66253;50.526;14.974;2024-03-23T08:21:08;13.40;;;7.30;;
77234;SDS011;66253;50.526;14.974;2024-03-23T08:23:37;12.10;;;7.50;;
77234;SDS011;66253;50.526;14.974;2024-03-23T08:26:06;12.80;;;6.70;;
77234;SDS011;66253;50.526;14.974;2024-03-23T08:28:36;14.50;;;7.80;;
77234;SDS011;66253;50.526;14.974;2024-03-23T08:31:06;12.00;;;7.10;;
77234;SDS011;66253;50.526;14.974;2024-03-23T08:33:35;11.60;;;6.10;;
77234;SDS011;66253;50.526;14.974;2024-03-23T08:36:06;12.00;;;7.20;;
77234;SDS011;66253;50.526;14.974;2024-03-23T08:38:36;11.20;;;7.10;;
77234;SDS011;66253;50.526;14.974;2024-03-23T08:41:05;9.90;;;6.40;;
77234;SDS011;66253;50.526;14.974;2024-03-23T08:43:35;12.00;;;6.60;;
77234;SDS011;66253;50.526;14.974;2024-03-23T08:46:05;11.80;;;6.80;;
77234;SDS011;66253;50.526;14.974;2024-03-23T08:48:35;10.90;;;6.30;;
77234;SDS011;66253;50.526;14.974;2024-03-23T08:51:05;11.70;;;7.30;;
77234;SDS011;66253;50.526;14.974;2024-03-23T08:53:35;12.50;;;6.90;;
77234;SDS011;66253;50.526;14.974;2024-03-23T08:56:07;12.20;;;7.10;;
77234;SDS011;66253;50.526;14.974;2024-03-23T08:58:36;13.30;;;6.50;;
77234;SDS011;66253;50.526;14.974;2024-03-23T09:01:05;12.90;;;7.60;;
77234;SDS011;66253;50.526;14.974;2024-03-23T09:06:02;12.40;;;6.00;;
77234;SDS011;66253;50.526;14.974;2024-03-23T09:08:36;11.90;;;6.20;;
77234;SDS011;66253;50.526;14.974;2024-03-23T09:11:05;12.10;;;7.00;;
77234;SDS011;66253;50.526;14.974;2024-03-23T09:13:38;11.40;;;7.40;;
77234;SDS011;66253;50.526;14.974;2024-03-23T09:16:07;13.60;;;7.30;;
77234;SDS011;66253;50.526;14.974;2024-03-23T09:18:36;13.70;;;6.80;;
77234;SDS011;66253;50.526;14.974;2024-03-23T09:21:10;11.80;;;6.70;;
77234;SDS011;66253;50.526;14.974;2024-03-23T09:23:39;11.90;;;6.20;;
77234;SDS011;66253;50.526;14.974;2024-03-23T09:26:09;11.30;;;6.00;;
77234;SDS011;66253;50.526;14.974;2024-03-23T09:28:38;11.50;;;6.10;;
77234;SDS011;66253;50.526;14.974;2024-03-23T09:31:07;10.20;;;5.80;;
77234;SDS011;66253;50.526;14.974;2024-03-23T09:33:35;11.30;;;5.80;;
77234;SDS011;66253;50.526;14.974;2024-03-23T09:36:04;11.70;;;7.10;;
77234;SDS011;66253;50.526;14.974;2024-03-23T09:38:34;11.70;;;5.90;;
77234;SDS011;66253;50.526;14.974;2024-03-23T09:41:07;11.90;;;6.50;;
77234;SDS011;66253;50.526;14.974;2024-03-23T09:43:36;13.20;;;6.90;;
77234;SDS011;66253;50.526;14.974;2024-03-23T09:46:06;12.00;;;6.50;;
77234;SDS011;66253;50.526;14.974;2024-03-23T09:48:35;10.30;;;6.50;;
77234;SDS011;66253;50.526;14.974;2024-03-23T09:51:04;10.80;;;6.70;;
77234;SDS011;66253;50.526;14.974;2024-03-23T09:53:35;11.70;;;6.30;;
77234;SDS011;66253;50.526;14.974;2024-03-23T09:56:04;11.60;;;6.40;;
77234;SDS011;66253;50.526;14.974;2024-03-23T09:58:34;13.80;;;10.50;;
77234;SDS011;66253;50.526;14.974;2024-03-23T10:01:03;10.60;;;6.70;;
77234;SDS011;66253;50.526;14.974;2024-03-23T10:03:33;8.80;;;5.90;;
77234;SDS011;66253;50.526;14.974;2024-03-23T10:06:10;12.00;;;6.50;;
77234;SDS011;66253;50.526;14.974;2024-03-23T10:08:39;12.60;;;6.60;;
77234;SDS011;66253;50.526;14.974;2024-03-23T10:11:14;12.80;;;7.40;;
77234;SDS011;66253;50.526;14.974;2024-03-23T10:13:43;13.40;;;8.40;;
77234;SDS011;66253;50.526;14.974;2024-03-23T10:16:14;15.20;;;9.20;;
77234;SDS011;66253;50.526;14.974;2024-03-23T10:18:50;18.00;;;10.40;;
77234;SDS011;66253;50.526;14.974;2024-03-23T10:21:18;15.00;;;7.60;;
77234;SDS011;66253;50.526;14.974;2024-03-23T10:23:47;17.80;;;12.00;;
77234;SDS011;66253;50.526;14.974;2024-03-23T10:26:17;50.90;;;31.80;;
77234;SDS011;66253;50.526;14.974;2024-03-23T10:28:53;30.80;;;20.60;;
77234;SDS011;66253;50.526;14.974;2024-03-23T10:31:22;15.20;;;9.70;;
77234;SDS011;66253;50.526;14.974;2024-03-23T10:33:51;10.40;;;6.60;;
77234;SDS011;66253;50.526;14.974;2024-03-23T10:36:20;11.30;;;5.90;;
77234;SDS011;66253;50.526;14.974;2024-03-23T10:38:50;9.30;;;5.10;;
77234;SDS011;66253;50.526;14.974;2024-03-23T10:41:19;8.90;;;5.10;;
77234;SDS011;66253;50.526;14.974;2024-03-23T10:43:52;8.70;;;4.50;;
77234;SDS011;66253;50.526;14.974;2024-03-23T10:46:22;7.60;;;4.10;;
77234;SDS011;66253;50.526;14.974;2024-03-23T10:48:55;9.70;;;4.90;;
77234;SDS011;66253;50.526;14.974;2024-03-23T10:51:23;10.10;;;4.80;;
77234;SDS011;66253;50.526;14.974;2024-03-23T10:53:52;9.00;;;3.30;;
77234;SDS011;66253;50.526;14.974;2024-03-23T10:56:22;9.70;;;4.90;;
77234;SDS011;66253;50.526;14.974;2024-03-23T10:58:51;8.20;;;3.90;;
77234;SDS011;66253;50.526;14.974;2024-03-23T11:01:19;10.40;;;5.20;;
77234;SDS011;66253;50.526;14.974;2024-03-23T11:03:48;8.70;;;5.00;;
77234;SDS011;66253;50.526;14.974;2024-03-23T11:09:04;7.90;;;3.70;;
77234;SDS011;66253;50.526;14.974;2024-03-23T11:12:18;7.10;;;3.30;;
77234;SDS011;66253;50.526;14.974;2024-03-23T11:14:54;8.50;;;4.90;;
77234;SDS011;66253;50.526;14.974;2024-03-23T11:17:24;8.80;;;4.60;;
77234;SDS011;66253;50.526;14.974;2024-03-23T11:19:54;11.80;;;5.60;;
77234;SDS011;66253;50.526;14.974;2024-03-23T11:22:45;7.90;;;3.90;;
77234;SDS011;66253;50.526;14.974;2024-03-23T11:25:14;22.40;;;10.80;;
77234;SDS011;66253;50.526;14.974;2024-03-23T11:27:44;9.80;;;4.00;;
77234;SDS011;66253;50.526;14.974;2024-03-23T11:30:14;11.20;;;4.70;;
77234;SDS011;66253;50.526;14.974;2024-03-23T11:32:44;7.20;;;3.70;;
77234;SDS011;66253;50.526;14.974;2024-03-23T11:35:25;10.70;;;4.20;;
77234;SDS011;66253;50.526;14.974;2024-03-23T11:38:04;8.80;;;5.30;;
77234;SDS011;66253;50.526;14.974;2024-03-23T11:40:37;10.00;;;4.50;;
77234;SDS011;66253;50.526;14.974;2024-03-23T11:45:37;19.20;;;14.10;;
77234;SDS011;66253;50.526;14.974;2024-03-23T11:48:09;7.70;;;4.30;;
77234;SDS011;66253;50.526;14.974;2024-03-23T11:50:39;6.00;;;3.50;;
77234;SDS011;66253;50.526;14.974;2024-03-23T11:53:09;7.40;;;4.60;;
77234;SDS011;66253;50.526;14.974;2024-03-23T11:55:45;8.20;;;5.70;;
77234;SDS011;66253;50.526;14.974;2024-03-23T11:58:14;6.40;;;4.20;;
77234;SDS011;66253;50.526;14.974;2024-03-23T12:00:49;5.70;;;3.50;;
77234;SDS011;66253;50.526;14.974;2024-03-23T12:03:18;6.50;;;3.50;;
77234;SDS011;66253;50.526;14.974;2024-03-23T12:05:48;7.00;;;3.50;;
77234;SDS011;66253;50.526;14.974;2024-03-23T12:08:22;5.50;;;3.40;;
77234;SDS011;66253;50.526;14.974;2024-03-23T12:10:53;4.80;;;2.10;;
77234;SDS011;66253;50.526;14.974;2024-03-23T12:13:32;3.50;;;1.80;;
77234;SDS011;66253;50.526;14.974;2024-03-23T12:16:12;3.30;;;1.40;;
77234;SDS011;66253;50.526;14.974;2024-03-23T12:18:42;4.00;;;1.70;;
77234;SDS011;66253;50.526;14.974;2024-03-23T12:21:12;3.20;;;0.80;;
77234;SDS011;66253;50.526;14.974;2024-03-23T12:23:40;2.70;;;0.90;;
77234;SDS011;66253;50.526;14.974;2024-03-23T12:26:10;2.60;;;0.70;;
77234;SDS011;66253;50.526;14.974;2024-03-23T12:28:38;3.50;;;1.00;;
77234;SDS011;66253;50.526;14.974;2024-03-23T12:31:07;4.70;;;1.70;;
77234;SDS011;66253;50.526;14.974;2024-03-23T12:33:35;3.70;;;1.20;;
77234;SDS011;66253;50.526;14.974;2024-03-23T12:36:04;4.20;;;1.40;;
77234;SDS011;66253;50.526;14.974;2024-03-23T12:38:33;3.90;;;1.30;;
77234;SDS011;66253;50.526;14.974;2024-03-23T12:41:02;4.90;;;2.20;;
77234;SDS011;66253;50.526;14.974;2024-03-23T12:43:31;4.10;;;1.70;;
77234;SDS011;66253;50.526;14.974;2024-03-23T12:46:05;2.70;;;0.80;;
77234;SDS011;66253;50.526;14.974;2024-03-23T12:48:36;2.60;;;0.90;;
77234;SDS011;66253;50.526;14.974;2024-03-23T12:51:05;2.10;;;0.70;;
77234;SDS011;66253;50.526;14.974;2024-03-23T12:53:33;2.80;;;1.00;;
77234;SDS011;66253;50.526;14.974;2024-03-23T12:56:03;1.90;;;0.60;;
77234;SDS011;66253;50.526;14.974;2024-03-23T12:58:31;1.20;;;0.20;;
77234;SDS011;66253;50.526;14.974;2024-03-23T13:01:00;1.30;;;0.40;;
77234;SDS011;66253;50.526;14.974;2024-03-23T13:03:30;1.20;;;0.20;;
77234;SDS011;66253;50.526;14.974;2024-03-23T13:05:59;4.10;;;1.20;;
77234;SDS011;66253;50.526;14.974;2024-03-23T13:08:27;3.70;;;1.60;;
77234;SDS011;66253;50.526;14.974;2024-03-23T13:10:59;2.80;;;1.30;;
77234;SDS011;66253;50.526;14.974;2024-03-23T13:13:31;2.20;;;0.40;;
77234;SDS011;66253;50.526;14.974;2024-03-23T13:16:00;4.10;;;1.40;;
77234;SDS011;66253;50.526;14.974;2024-03-23T13:18:29;3.50;;;1.60;;
77234;SDS011;66253;50.526;14.974;2024-03-23T13:21:01;4.00;;;1.60;;
77234;SDS011;66253;50.526;14.974;2024-03-23T13:23:30;3.90;;;2.70;;
77234;SDS011;66253;50.526;14.974;2024-03-23T13:25:59;1.80;;;0.50;;
77234;SDS011;66253;50.526;14.974;2024-03-23T13:28:27;2.20;;;0.70;;
77234;SDS011;66253;50.526;14.974;2024-03-23T13:30:56;3.50;;;1.10;;
77234;SDS011;66253;50.526;14.974;2024-03-23T13:33:25;3.10;;;1.00;;
77234;SDS011;66253;50.526;14.974;2024-03-23T13:35:54;5.00;;;0.90;;
77234;SDS011;66253;50.526;14.974;2024-03-23T13:38:22;1.50;;;0.40;;
77234;SDS011;66253;50.526;14.974;2024-03-23T13:40:52;2.00;;;0.50;;
77234;SDS011;66253;50.526;14.974;2024-03-23T13:43:22;2.10;;;0.30;;
77234;SDS011;66253;50.526;14.974;2024-03-23T13:45:52;2.20;;;0.30;;
77234;SDS011;66253;50.526;14.974;2024-03-23T13:48:22;2.70;;;0.50;;
77234;SDS011;66253;50.526;14.974;2024-03-23T13:50:58;1.50;;;0.30;;
77234;SDS011;66253;50.526;14.974;2024-03-23T13:53:26;3.10;;;0.50;;
77234;SDS011;66253;50.526;14.974;2024-03-23T13:55:55;3.90;;;0.60;;
77234;SDS011;66253;50.526;14.974;2024-03-23T13:58:24;1.70;;;0.40;;
77234;SDS011;66253;50.526;14.974;2024-03-23T14:00:53;1.80;;;0.40;;
77234;SDS011;66253;50.526;14.974;2024-03-23T14:03:24;1.50;;;0.20;;
77234;SDS011;66253;50.526;14.974;2024-03-23T14:05:53;2.10;;;0.50;;
77234;SDS011;66253;50.526;14.974;2024-03-23T14:08:24;1.50;;;0.40;;
77234;SDS011;66253;50.526;14.974;2024-03-23T14:10:53;7.20;;;2.40;;
77234;SDS011;66253;50.526;14.974;2024-03-23T14:13:22;3.90;;;0.90;;
77234;SDS011;66253;50.526;14.974;2024-03-23T14:15:53;8.80;;;2.30;;
77234;SDS011;66253;50.526;14.974;2024-03-23T14:18:22;3.90;;;0.80;;
77234;SDS011;66253;50.526;14.974;2024-03-23T14:20:51;3.60;;;0.90;;
77234;SDS011;66253;50.526;14.974;2024-03-23T14:23:23;3.40;;;0.90;;
77234;SDS011;66253;50.526;14.974;2024-03-23T14:25:53;3.50;;;1.10;;
77234;SDS011;66253;50.526;14.974;2024-03-23T14:28:22;4.00;;;1.10;;
77234;SDS011;66253;50.526;14.974;2024-03-23T14:30:51;2.90;;;0.50;;
77234;SDS011;66253;50.526;14.974;2024-03-23T14:33:22;4.80;;;1.50;;
77234;SDS011;66253;50.526;14.974;2024-03-23T14:35:53;3.10;;;0.80;;
77234;SDS011;66253;50.526;14.974;2024-03-23T14:38:22;2.60;;;0.70;;
77234;SDS011;66253;50.526;14.974;2024-03-23T14:40:51;2.90;;;0.80;;
77234;SDS011;66253;50.526;14.974;2024-03-23T14:43:19;3.50;;;0.90;;
77234;SDS011;66253;50.526;14.974;2024-03-23T14:48:36;2.70;;;0.70;;
77234;SDS011;66253;50.526;14.974;2024-03-23T14:51:05;7.10;;;2.60;;
77234;SDS011;66253;50.526;14.974;2024-03-23T14:53:34;3.20;;;0.90;;
77234;SDS011;66253;50.526;14.974;2024-03-23T14:56:05;2.90;;;0.90;;
77234;SDS011;66253;50.526;14.974;2024-03-23T15:01:01;4.20;;;1.40;;
77234;SDS011;66253;50.526;14.974;2024-03-23T15:03:31;5.20;;;2.00;;
77234;SDS011;66253;50.526;14.974;2024-03-23T15:06:00;2.40;;;0.50;;
77234;SDS011;66253;50.526;14.974;2024-03-23T15:08:31;3.60;;;0.90;;
77234;SDS011;66253;50.526;14.974;2024-03-23T15:11:00;6.20;;;2.80;;
77234;SDS011;66253;50.526;14.974;2024-03-23T15:13:28;3.90;;;0.70;;
77234;SDS011;66253;50.526;14.974;2024-03-23T15:16:00;3.50;;;1.10;;
77234;SDS011;66253;50.526;14.974;2024-03-23T15:18:30;4.90;;;2.20;;
77234;SDS011;66253;50.526;14.974;2024-03-23T15:21:00;10.10;;;5.20;;
77234;SDS011;66253;50.526;14.974;2024-03-23T15:23:29;10.50;;;3.40;;
77234;SDS011;66253;50.526;14.974;2024-03-23T15:25:58;23.80;;;10.50;;
77234;SDS011;66253;50.526;14.974;2024-03-23T15:28:28;28.70;;;12.20;;
77234;SDS011;66253;50.526;14.974;2024-03-23T15:30:59;26.10;;;11.10;;
77234;SDS011;66253;50.526;14.974;2024-03-23T15:33:28;33.30;;;14.60;;
77234;SDS011;66253;50.526;14.974;2024-03-23T15:35:59;23.00;;;11.20;;
77234;SDS011;66253;50.526;14.974;2024-03-23T15:38:28;20.70;;;11.40;;
77234;SDS011;66253;50.526;14.974;2024-03-23T15:40:58;10.10;;;4.50;;
77234;SDS011;66253;50.526;14.974;2024-03-23T15:43:27;14.80;;;6.70;;
77234;SDS011;66253;50.526;14.974;2024-03-23T15:45:55;13.90;;;6.10;;
77234;SDS011;66253;50.526;14.974;2024-03-23T15:48:24;12.60;;;5.90;;